Time;durP1;ratioP1;P1;durP2;ratioP2;P2;SDS_P1;SDS_P2;PMS_P1;PMS_P2;Temp;Humidity;BMP_temperature;BMP_pressure;BME280_temperature;BME280_humidity;BME280_pressure;Samples;Min_cycle;Max_cycle;Signal;HPM_P1;HPM_P2
2021/04/06 00:00:37;;;;;;;8.63;1.92;;;;;;;2.94;90.35;99890.44;4987175;28;20113;-76
2021/04/06 00:03:07;;;;;;;6.05;1.50;;;;;;;2.89;90.34;99884.53;4985996;28;20027;-76
2021/04/06 00:05:34;;;;;;;6.85;1.90;;;;;;;2.93;90.36;99891.53;4985371;28;20058;-76
2021/04/06 00:08:01;;;;;;;3.92;1.85;;;;;;;2.87;90.60;99889.38;4987113;28;20101;-76
2021/04/06 00:10:56;;;;;;;6.43;2.00;;;;;;;2.94;90.69;99877.16;4990064;28;20537;-76
2021/04/06 00:13:24;;;;;;;2.80;1.65;;;;;;;2.83;91.08;99883.19;4978573;28;20529;-76
2021/04/06 00:15:50;;;;;;;3.28;1.63;;;;;;;2.80;91.63;99884.59;4967621;28;20457;-76
2021/04/06 00:18:18;;;;;;;5.38;1.88;;;;;;;2.82;90.98;99893.03;4985794;28;20472;-75
2021/04/06 00:20:46;;;;;;;3.35;1.63;;;;;;;2.73;91.78;99892.28;4981279;28;20138;-77
2021/04/06 00:23:14;;;;;;;6.43;1.90;;;;;;;2.71;91.95;99894.47;4971643;28;20037;-76
2021/04/06 00:25:43;;;;;;;6.90;1.70;;;;;;;2.83;91.82;99889.25;4992012;28;20517;-77
2021/04/06 00:28:18;;;;;;;8.05;2.03;;;;;;;2.86;91.46;99888.63;4990959;28;20022;-76
2021/04/06 00:30:48;;;;;;;6.88;1.58;;;;;;;2.88;91.27;99886.41;4994770;28;20049;-76
2021/04/06 00:33:43;;;;;;;9.50;2.08;;;;;;;3.00;91.15;99877.75;4991075;28;20030;-76
2021/04/06 00:36:10;;;;;;;8.23;1.77;;;;;;;2.86;92.06;99880.66;4984862;28;20667;-76
2021/04/06 00:38:41;;;;;;;3.80;1.50;;;;;;;2.77;92.73;99879.91;4977688;28;20022;-75
2021/04/06 00:41:13;;;;;;;7.40;1.70;;;;;;;2.95;91.69;99884.03;4991992;28;20030;-76
2021/04/06 00:43:40;;;;;;;5.47;1.60;;;;;;;3.07;90.65;99885.97;4986770;28;20030;-77
2021/04/06 00:46:11;;;;;;;8.57;1.67;;;;;;;2.99;90.98;99882.28;4992313;28;20038;-78
2021/04/06 00:48:41;;;;;;;9.55;1.70;;;;;;;3.05;90.90;99886.31;4978431;28;20061;-78
2021/04/06 00:51:08;;;;;;;7.15;1.63;;;;;;;3.09;90.02;99881.91;4982379;28;20030;-77
2021/04/06 00:54:03;;;;;;;5.63;1.50;;;;;;;2.90;89.99;99884.22;4971000;28;20022;-77
2021/04/06 00:56:37;;;;;;;4.97;1.55;;;;;;;2.89;91.05;99890.63;4996646;28;20066;-78
2021/04/06 00:59:06;;;;;;;7.55;1.70;;;;;;;2.93;90.30;99880.91;4986915;28;20062;-78
2021/04/06 01:01:37;;;;;;;7.65;1.65;;;;;;;2.85;90.58;99881.72;4974867;28;20030;-77
2021/04/06 01:04:07;;;;;;;5.78;1.77;;;;;;;2.78;90.81;99872.72;4991093;28;20036;-77
2021/04/06 01:06:51;;;;;;;8.35;2.00;;;;;;;2.73;91.24;99874.44;4988138;28;20025;-77
2021/04/06 01:09:17;;;;;;;3.63;1.42;;;;;;;2.65;91.16;99872.63;4987053;28;20030;-77
2021/04/06 01:11:43;;;;;;;4.15;1.45;;;;;;;2.77;91.15;99873.81;4989969;28;20033;-77
2021/04/06 01:14:15;;;;;;;4.95;1.40;;;;;;;2.66;91.60;99868.88;4983120;28;20042;-77
2021/04/06 01:16:40;;;;;;;7.45;1.35;;;;;;;2.66;90.87;99886.69;4991438;28;20038;-76
2021/04/06 01:19:06;;;;;;;7.47;1.42;;;;;;;2.72;91.28;99882.75;4990797;28;20101;-77
2021/04/06 01:21:33;;;;;;;3.00;1.17;;;;;;;2.82;90.82;99887.69;4960323;28;20121;-76
2021/04/06 01:23:58;;;;;;;6.45;1.40;;;;;;;2.81;90.83;99882.72;4990898;28;20042;-76
2021/04/06 01:26:24;;;;;;;6.50;1.40;;;;;;;2.78;90.75;99880.69;4992042;28;20034;-77
2021/04/06 01:28:49;;;;;;;3.55;1.40;;;;;;;2.62;91.69;99883.13;4986679;28;20113;-77
2021/04/06 01:31:15;;;;;;;4.70;1.67;;;;;;;2.68;91.52;99893.25;4989926;28;20114;-76
2021/04/06 01:33:42;;;;;;;5.10;1.38;;;;;;;2.52;91.88;99889.56;4990587;28;20112;-77
2021/04/06 01:36:08;;;;;;;4.25;1.40;;;;;;;2.41;93.09;99888.38;4969207;28;20399;-77
2021/04/06 01:38:40;;;;;;;3.58;1.42;;;;;;;2.55;93.20;99885.50;4982008;28;20030;-77
2021/04/06 01:41:06;;;;;;;4.47;1.27;;;;;;;2.64;92.63;99880.91;4974429;28;20084;-77
2021/04/06 01:43:33;;;;;;;5.07;1.65;;;;;;;2.62;92.58;99872.47;4987131;28;20034;-77
2021/04/06 01:46:00;;;;;;;3.30;1.52;;;;;;;2.65;92.01;99866.53;4988706;28;20117;-77
2021/04/06 01:48:28;;;;;;;7.20;1.63;;;;;;;2.65;92.59;99864.66;4990675;28;20042;-77
2021/04/06 01:50:55;;;;;;;8.52;1.60;;;;;;;2.54;93.19;99863.47;4991252;28;20054;-76
2021/04/06 01:53:22;;;;;;;4.68;1.63;;;;;;;2.55;93.19;99865.03;4985089;28;20038;-77
2021/04/06 01:55:53;;;;;;;2.90;1.13;;;;;;;2.48;94.03;99866.63;4979768;28;20388;-77
2021/04/06 01:58:22;;;;;;;5.45;1.70;;;;;;;2.59;93.99;99862.50;4985503;28;20031;-77
2021/04/06 02:01:13;;;;;;;5.80;1.40;;;;;;;2.59;93.43;99860.63;4988313;28;20054;-77
2021/04/06 02:03:47;;;;;;;4.90;1.40;;;;;;;2.64;93.17;99860.44;4983976;28;20027;-76
2021/04/06 02:06:14;;;;;;;3.75;1.60;;;;;;;2.50;94.12;99862.53;4974491;28;20030;-76
2021/04/06 02:08:51;;;;;;;3.85;1.52;;;;;;;2.55;94.10;99864.25;4990764;28;20121;-76
2021/04/06 02:11:23;;;;;;;3.38;1.45;;;;;;;2.51;94.09;99858.81;4984525;28;20403;-77
2021/04/06 02:13:49;;;;;;;4.63;1.63;;;;;;;2.45;94.54;99867.25;4991300;28;20030;-77
2021/04/06 02:16:15;;;;;;;5.57;1.58;;;;;;;2.41;94.77;99861.81;4978097;28;20148;-77
2021/04/06 02:18:40;;;;;;;4.35;1.48;;;;;;;2.52;94.95;99860.34;4981024;28;20566;-75
2021/04/06 02:21:07;;;;;;;3.20;1.55;;;;;;;2.59;94.50;99851.88;4988371;28;20110;-77
2021/04/06 02:23:38;;;;;;;4.88;1.77;;;;;;;2.70;94.13;99855.72;4995250;28;20057;-75
2021/04/06 02:26:04;;;;;;;5.50;1.42;;;;;;;2.77;93.79;99860.53;4988495;28;20614;-76
2021/04/06 02:28:29;;;;;;;5.18;1.65;;;;;;;2.87;93.39;99858.25;4985329;28;20118;-77
2021/04/06 02:30:58;;;;;;;3.33;1.70;;;;;;;2.76;94.07;99867.72;4985359;28;20102;-77
2021/04/06 02:33:30;;;;;;;2.40;1.55;;;;;;;2.75;94.30;99860.84;4994417;28;20034;-77
2021/04/06 02:36:08;;;;;;;4.18;1.45;;;;;;;2.83;94.27;99870.66;4988572;28;20045;-77
2021/04/06 02:38:38;;;;;;;4.80;1.65;;;;;;;2.97;93.75;99867.75;4992965;28;20486;-77
2021/04/06 02:41:13;;;;;;;6.32;1.92;;;;;;;2.92;93.80;99876.69;4971687;28;20038;-76
2021/04/06 02:43:41;;;;;;;5.03;1.83;;;;;;;2.92;94.07;99866.06;4988692;28;20049;-77
2021/04/06 02:46:07;;;;;;;6.75;1.75;;;;;;;2.89;93.93;99861.38;4994467;28;20061;-76
2021/04/06 02:48:33;;;;;;;4.45;1.92;;;;;;;2.86;94.09;99866.56;4994020;28;20104;-76
2021/04/06 02:50:59;;;;;;;9.48;1.80;;;;;;;2.85;94.25;99868.44;4990880;28;20638;-77
2021/04/06 02:53:25;;;;;;;7.30;2.05;;;;;;;2.97;94.11;99867.75;4994488;28;20034;-77
2021/04/06 02:55:52;;;;;;;4.45;2.20;;;;;;;3.11;93.59;99877.03;4992724;28;20034;-77
2021/04/06 02:58:21;;;;;;;3.92;1.80;;;;;;;3.17;93.65;99885.59;4990776;28;20061;-75
2021/04/06 03:00:47;;;;;;;3.47;1.67;;;;;;;3.20;93.76;99887.59;4976462;28;20042;-77
2021/04/06 03:03:18;;;;;;;5.38;1.60;;;;;;;3.29;93.46;99886.41;4991954;28;20037;-77
2021/04/06 03:05:44;;;;;;;5.88;1.75;;;;;;;3.19;94.15;99892.16;4994296;28;20039;-76
2021/04/06 03:08:10;;;;;;;4.95;1.65;;;;;;;3.13;94.62;99885.47;4993733;28;20026;-76
2021/04/06 03:10:36;;;;;;;8.32;1.95;;;;;;;3.15;95.40;99882.47;4988923;28;20052;-77
2021/04/06 03:13:08;;;;;;;4.43;2.05;;;;;;;3.16;95.09;99879.50;4991944;28;20035;-77
2021/04/06 03:15:33;;;;;;;12.73;2.90;;;;;;;3.32;94.96;99885.78;4994013;28;20109;-76
2021/04/06 03:18:04;;;;;;;7.00;2.60;;;;;;;3.29;94.92;99880.34;4993299;28;20547;-77
2021/04/06 03:20:30;;;;;;;9.63;3.08;;;;;;;3.33;95.13;99882.00;4991309;28;20049;-77
2021/04/06 03:22:56;;;;;;;7.57;3.67;;;;;;;3.40;95.21;99873.50;4985181;28;20395;-77
2021/04/06 03:25:22;;;;;;;5.03;3.20;;;;;;;3.42;95.09;99858.78;4994008;28;20038;-77
2021/04/06 03:27:49;;;;;;;8.23;3.47;;;;;;;3.36;95.21;99859.31;4991972;28;20030;-77
2021/04/06 03:30:32;;;;;;;11.80;3.63;;;;;;;3.35;95.86;99852.41;4994366;28;20037;-77
2021/04/06 03:33:00;;;;;;;11.15;4.25;;;;;;;3.34;95.83;99856.19;4990962;28;20505;-76
2021/04/06 03:35:26;;;;;;;10.32;4.15;;;;;;;3.32;96.03;99861.06;4983856;28;20547;-77
2021/04/06 03:37:53;;;;;;;7.93;3.92;;;;;;;3.28;96.07;99857.50;4958627;28;20113;-76
2021/04/06 03:40:18;;;;;;;12.65;3.85;;;;;;;3.23;96.99;99871.00;4991576;28;20030;-76
2021/04/06 03:42:44;;;;;;;9.70;4.53;;;;;;;3.21;97.42;99857.25;4992040;28;20120;-76
2021/04/06 03:45:10;;;;;;;11.57;3.92;;;;;;;3.37;97.30;99858.19;4992028;28;20064;-76
2021/04/06 03:47:56;;;;;;;10.30;4.68;;;;;;;3.29;97.95;99859.06;4980958;28;20030;-73
2021/04/06 03:50:31;;;;;;;13.32;5.05;;;;;;;3.29;97.76;99851.84;4974548;28;20026;-75
2021/04/06 03:53:06;;;;;;;13.18;5.85;;;;;;;3.36;97.76;99851.31;4985443;28;20049;-76
2021/04/06 03:55:32;;;;;;;16.17;5.68;;;;;;;3.16;98.83;99860.88;4972661;28;20180;-77
2021/04/06 03:58:05;;;;;;;12.75;5.32;;;;;;;3.22;99.53;99853.47;4990104;28;20018;-77
2021/04/06 04:00:30;;;;;;;14.73;5.40;;;;;;;3.33;99.01;99866.06;4987444;28;20407;-76
2021/04/06 04:02:59;;;;;;;11.77;4.97;;;;;;;3.36;98.23;99860.09;4986595;28;20042;-76
2021/04/06 04:05:24;;;;;;;9.07;4.07;;;;;;;3.35;98.42;99853.19;4985889;28;20065;-76
2021/04/06 04:07:50;;;;;;;10.05;4.22;;;;;;;3.23;98.89;99858.47;4986512;28;20042;-74
2021/04/06 04:10:15;;;;;;;10.32;3.40;;;;;;;3.16;99.09;99860.88;4984374;28;20026;-76
2021/04/06 04:12:40;;;;;;;7.93;3.55;;;;;;;3.20;99.14;99853.00;4989291;28;20177;-76
2021/04/06 04:15:06;;;;;;;9.48;3.53;;;;;;;3.12;99.40;99856.50;4992762;28;20108;-76
2021/04/06 04:17:32;;;;;;;5.97;2.85;;;;;;;3.06;99.56;99855.94;4991870;28;20042;-77
2021/04/06 04:19:57;;;;;;;15.05;3.20;;;;;;;3.17;98.63;99866.97;4982911;28;20042;-76
2021/04/06 04:22:23;;;;;;;8.93;2.90;;;;;;;2.99;99.40;99861.00;4974382;28;20484;-76
2021/04/06 04:24:48;;;;;;;11.25;3.50;;;;;;;2.99;99.24;99861.00;4992763;28;20038;-75
2021/04/06 04:27:14;;;;;;;8.85;3.40;;;;;;;2.95;99.35;99862.75;4992726;28;20037;-76
2021/04/06 04:29:39;;;;;;;10.20;2.78;;;;;;;2.97;99.58;99863.22;4982178;28;20506;-76
2021/04/06 04:32:13;;;;;;;7.85;3.42;;;;;;;3.13;99.03;99853.56;4987951;28;20529;-75
2021/04/06 04:34:40;;;;;;;6.45;3.38;;;;;;;3.24;98.39;99857.38;4968773;28;20042;-76
2021/04/06 04:37:05;;;;;;;7.80;2.95;;;;;;;3.16;98.61;99865.41;4982450;28;20042;-76
2021/04/06 04:39:31;;;;;;;8.88;3.22;;;;;;;3.30;98.32;99866.72;4987610;28;20509;-76
2021/04/06 04:41:57;;;;;;;10.88;3.53;;;;;;;3.32;98.28;99867.16;4975170;28;20096;-77
2021/04/06 04:44:22;;;;;;;11.00;3.42;;;;;;;3.34;98.34;99862.31;4993170;28;20032;-76
2021/04/06 04:46:48;;;;;;;8.70;3.25;;;;;;;3.26;99.14;99865.81;4992364;28;20053;-76
2021/04/06 04:49:14;;;;;;;7.57;3.10;;;;;;;3.28;98.64;99865.47;4954457;28;20034;-77
2021/04/06 04:51:39;;;;;;;9.32;2.70;;;;;;;3.28;99.42;99868.91;4986392;28;20080;-76
2021/04/06 04:54:05;;;;;;;14.15;3.00;;;;;;;3.24;99.68;99861.91;4992337;28;20038;-74
2021/04/06 04:56:31;;;;;;;11.93;2.78;;;;;;;3.30;99.44;99864.06;4970566;28;20406;-75
2021/04/06 04:58:56;;;;;;;14.45;2.75;;;;;;;3.46;99.11;99859.69;4980848;28;20030;-75
2021/04/06 05:01:22;;;;;;;9.18;2.63;;;;;;;3.56;98.25;99866.50;4983503;28;20495;-75
2021/04/06 05:03:47;;;;;;;13.02;2.67;;;;;;;3.49;98.62;99856.38;4991079;28;20041;-75
2021/04/06 05:06:13;;;;;;;7.40;2.15;;;;;;;3.38;99.06;99851.78;4989626;28;20036;-75
2021/04/06 05:08:41;;;;;;;9.30;2.63;;;;;;;3.45;99.03;99862.66;4973440;28;20042;-75
2021/04/06 05:11:08;;;;;;;9.93;2.40;;;;;;;3.48;98.39;99873.44;4986636;28;20035;-76
2021/04/06 05:13:34;;;;;;;8.13;2.47;;;;;;;3.66;98.38;99869.50;4982005;28;20978;-75
2021/04/06 05:15:59;;;;;;;9.68;3.05;;;;;;;3.58;98.63;99870.38;4973139;28;20100;-75
2021/04/06 05:18:25;;;;;;;8.43;2.45;;;;;;;3.58;99.28;99866.94;4984140;28;20109;-76
2021/04/06 05:20:50;;;;;;;12.05;2.90;;;;;;;3.74;99.12;99875.84;4982708;28;20076;-75
2021/04/06 05:23:16;;;;;;;17.60;2.88;;;;;;;3.73;99.43;99862.88;4975490;28;20031;-75
2021/04/06 05:25:41;;;;;;;12.18;3.05;;;;;;;3.66;99.63;99864.19;4972618;28;20037;-75
2021/04/06 05:28:07;;;;;;;14.52;3.25;;;;;;;3.61;99.73;99863.63;4990350;28;20069;-75
2021/04/06 05:30:33;;;;;;;12.73;2.70;;;;;;;3.67;100.00;99863.09;4982517;28;20031;-75
2021/04/06 05:32:59;;;;;;;9.90;2.97;;;;;;;3.76;99.75;99864.88;4981093;28;20039;-76
2021/04/06 05:35:24;;;;;;;7.35;2.83;;;;;;;3.76;99.80;99872.84;4990576;28;20030;-75
2021/04/06 05:37:49;;;;;;;14.38;3.53;;;;;;;3.61;100.00;99864.41;4988032;28;20799;-75
2021/04/06 05:40:15;;;;;;;11.80;2.85;;;;;;;3.60;100.00;99878.81;4981772;28;20447;-75
2021/04/06 05:42:41;;;;;;;10.88;2.92;;;;;;;3.41;100.00;99867.88;4967482;28;20519;-75
2021/04/06 05:45:08;;;;;;;15.00;3.22;;;;;;;3.52;100.00;99877.00;4961260;28;20069;-76
2021/04/06 05:47:43;;;;;;;12.30;2.97;;;;;;;3.61;100.00;99877.72;4989567;28;20180;-75
2021/04/06 05:50:09;;;;;;;13.65;2.80;;;;;;;3.50;100.00;99876.53;4986911;28;20026;-76
2021/04/06 05:52:35;;;;;;;17.73;3.47;;;;;;;3.73;100.00;99874.31;4971231;28;20407;-76
2021/04/06 05:55:04;;;;;;;11.05;3.03;;;;;;;3.74;100.00;99877.72;4981584;28;20042;-76
2021/04/06 05:57:29;;;;;;;13.32;2.95;;;;;;;3.78;100.00;99886.63;4993475;28;20117;-76
2021/04/06 05:59:55;;;;;;;11.73;3.15;;;;;;;3.73;100.00;99874.31;4983016;28;20153;-76
2021/04/06 06:02:21;;;;;;;18.67;3.22;;;;;;;3.78;100.00;99886.63;4990041;28;20026;-76
2021/04/06 06:04:46;;;;;;;16.92;3.35;;;;;;;3.70;100.00;99887.50;4990062;28;20490;-76
2021/04/06 06:07:12;;;;;;;12.98;3.00;;;;;;;3.84;100.00;99887.97;4983049;28;20030;-76
2021/04/06 06:09:38;;;;;;;10.75;2.40;;;;;;;4.11;98.97;99884.72;4985208;28;20039;-76
2021/04/06 06:12:07;;;;;;;10.02;3.13;;;;;;;4.14;98.50;99889.41;4975025;28;20531;-76
2021/04/06 06:14:44;;;;;;;12.07;3.33;;;;;;;4.03;98.83;99882.91;4991002;28;20122;-76
2021/04/06 06:17:21;;;;;;;14.63;3.00;;;;;;;4.15;99.00;99881.06;4987495;28;20033;-76
2021/04/06 06:19:50;;;;;;;14.57;3.42;;;;;;;4.21;98.58;99873.63;4992528;28;20038;-76
2021/04/06 06:22:20;;;;;;;11.32;3.50;;;;;;;4.28;97.77;99879.19;4987696;28;20030;-75
2021/04/06 06:24:49;;;;;;;19.88;2.70;;;;;;;4.49;96.25;99885.22;4977629;28;20034;-74
2021/04/06 06:27:41;;;;;;;17.85;2.55;;;;;;;4.70;95.93;99879.75;4984688;28;20046;-77
2021/04/06 06:30:28;;;;;;;18.35;3.50;;;;;;;4.79;94.71;99870.53;4992951;28;20117;-76
2021/04/06 06:33:27;;;;;;;13.75;2.70;;;;;;;4.94;95.15;99877.84;4988578;28;20030;-75
2021/04/06 06:35:55;;;;;;;11.60;2.55;;;;;;;5.10;93.46;99885.94;4991422;28;20034;-75
2021/04/06 06:38:29;;;;;;;8.77;1.92;;;;;;;5.01;92.83;99886.06;4988987;28;20461;-76
2021/04/06 06:41:08;;;;;;;14.27;2.30;;;;;;;5.12;92.45;99892.50;4990461;28;20134;-75
2021/04/06 06:43:34;;;;;;;10.57;2.38;;;;;;;5.21;91.00;99906.47;4991317;28;20031;-75
2021/04/06 06:46:00;;;;;;;13.88;2.38;;;;;;;5.11;91.39;99930.19;4991154;28;20077;-75
2021/04/06 06:48:33;;;;;;;11.90;2.28;;;;;;;5.04;91.42;99930.75;4991948;28;20045;-76
2021/04/06 06:51:03;;;;;;;7.80;1.67;;;;;;;4.76;92.50;99923.75;4992988;28;20501;-75
2021/04/06 06:53:37;;;;;;;6.00;1.52;;;;;;;4.59;92.74;99922.84;4993045;28;20030;-75
2021/04/06 06:56:10;;;;;;;5.50;1.50;;;;;;;4.38;94.43;99918.72;4974854;28;20097;-76
2021/04/06 06:58:41;;;;;;;9.52;1.40;;;;;;;4.29;94.33;99915.38;4990777;28;20034;-75
2021/04/06 07:01:20;;;;;;;6.72;1.90;;;;;;;4.20;95.77;99893.41;4990498;28;20105;-74
2021/04/06 07:04:03;;;;;;;8.30;1.50;;;;;;;4.26;96.44;99898.16;4986129;28;20108;-74
2021/04/06 07:06:29;;;;;;;7.60;2.08;;;;;;;4.38;97.71;99890.19;4988683;28;20035;-75
2021/04/06 07:08:55;;;;;;;14.18;2.65;;;;;;;4.61;98.30;99893.19;4974066;28;20719;-74
2021/04/06 07:11:22;;;;;;;8.35;2.33;;;;;;;4.93;98.70;99889.63;4991117;28;20526;-74
2021/04/06 07:13:51;;;;;;;7.40;2.88;;;;;;;5.08;98.75;99894.28;4991268;28;20113;-74
2021/04/06 07:16:18;;;;;;;11.57;2.88;;;;;;;5.33;98.65;99892.31;4974506;28;20034;-76
2021/04/06 07:18:44;;;;;;;11.30;2.75;;;;;;;5.66;97.68;99892.09;4987833;28;20406;-74
2021/04/06 07:21:12;;;;;;;6.68;2.78;;;;;;;5.77;97.14;99895.84;4982716;28;20078;-75
2021/04/06 07:23:44;;;;;;;11.13;2.67;;;;;;;6.13;96.58;99887.66;4985862;28;20078;-75
2021/04/06 07:26:15;;;;;;;11.90;2.53;;;;;;;6.23;93.51;99884.47;4992666;28;20503;-75
2021/04/06 07:28:41;;;;;;;16.55;2.50;;;;;;;6.16;92.32;99886.94;4973183;28;20042;-74
2021/04/06 07:31:10;;;;;;;20.98;3.17;;;;;;;6.26;93.15;99881.09;4969916;28;20054;-74
2021/04/06 07:33:36;;;;;;;8.73;2.50;;;;;;;6.62;91.34;99883.50;4988356;28;20034;-74
2021/04/06 07:36:10;;;;;;;14.55;2.00;;;;;;;7.01;88.21;99884.38;4986176;28;20134;-75
2021/04/06 07:38:40;;;;;;;11.60;2.67;;;;;;;6.93;87.40;99888.03;4988693;28;20039;-76
2021/04/06 07:41:07;;;;;;;9.35;1.70;;;;;;;6.64;85.07;99886.59;4990082;28;20031;-75
2021/04/06 07:43:33;;;;;;;10.60;2.15;;;;;;;6.39;84.96;99887.91;4992220;28;20054;-74
2021/04/06 07:45:59;;;;;;;10.57;2.88;;;;;;;6.22;86.51;99902.41;4991242;28;20073;-75
2021/04/06 07:48:49;;;;;;;10.75;2.33;;;;;;;5.71;88.43;99903.28;4987372;28;20038;-74
2021/04/06 07:51:25;;;;;;;9.77;2.03;;;;;;;5.42;89.40;99901.75;4987488;28;20038;-74
2021/04/06 07:53:59;;;;;;;12.52;2.40;;;;;;;5.09;90.86;99898.47;4991287;28;20457;-74
2021/04/06 07:56:48;;;;;;;8.63;2.60;;;;;;;5.09;91.54;99906.47;4990037;28;20041;-73
2021/04/06 07:59:20;;;;;;;8.50;2.80;;;;;;;5.14;92.24;99903.59;4973625;28;20065;-73
2021/04/06 08:02:06;;;;;;;10.25;2.38;;;;;;;5.05;92.90;99897.59;4973631;28;20078;-74
2021/04/06 08:04:37;;;;;;;9.63;2.72;;;;;;;4.90;94.15;99900.16;4991050;28;20049;-74
2021/04/06 08:07:22;;;;;;;12.07;3.00;;;;;;;4.91;94.55;99899.06;4988071;28;20034;-74
2021/04/06 08:09:54;;;;;;;18.05;2.85;;;;;;;4.98;94.78;99897.41;4989150;28;20031;-74
2021/04/06 08:12:25;;;;;;;15.73;3.30;;;;;;;5.07;95.36;99895.38;4990992;28;20089;-74
2021/04/06 08:15:00;;;;;;;11.52;2.95;;;;;;;5.36;95.55;99894.31;4979755;28;20113;-74
2021/04/06 08:17:26;;;;;;;9.80;2.67;;;;;;;5.94;95.16;99898.22;4989356;28;20041;-74
2021/04/06 08:20:13;;;;;;;11.20;3.17;;;;;;;5.98;94.55;99899.84;4990315;28;20510;-75
2021/04/06 08:22:49;;;;;;;11.93;3.13;;;;;;;6.11;93.53;99896.03;4991237;28;20644;-74
2021/04/06 08:25:15;;;;;;;8.57;2.47;;;;;;;6.19;92.40;99886.28;4985727;28;20046;-74
2021/04/06 08:27:41;;;;;;;11.77;2.35;;;;;;;6.30;92.21;99887.31;4956669;28;20037;-74
2021/04/06 08:30:38;;;;;;;9.95;2.22;;;;;;;6.56;91.63;99876.88;4973127;28;20760;-74
2021/04/06 08:33:06;;;;;;;11.00;2.15;;;;;;;6.62;89.49;99866.69;4989639;28;20037;-75
2021/04/06 08:35:52;;;;;;;10.48;2.35;;;;;;;6.50;87.53;99870.25;4988955;28;20042;-74
2021/04/06 08:38:33;;;;;;;10.20;1.75;;;;;;;6.44;86.66;99868.16;4983063;28;20395;-74
2021/04/06 08:41:14;;;;;;;9.90;2.75;;;;;;;6.26;87.22;99881.09;4983933;28;20049;-74
2021/04/06 08:43:49;;;;;;;9.75;1.90;;;;;;;6.17;87.16;99883.97;4984535;28;20038;-74
2021/04/06 08:46:37;;;;;;;9.15;1.90;;;;;;;5.58;87.93;99893.78;4987135;28;20391;-74
2021/04/06 08:49:11;;;;;;;3.85;1.35;;;;;;;5.61;88.78;99908.34;4975841;28;20065;-75
2021/04/06 08:51:45;;;;;;;3.42;1.27;;;;;;;5.26;90.79;99903.59;4985136;28;20084;-74
2021/04/06 08:54:16;;;;;;;6.85;1.33;;;;;;;5.09;90.66;99903.81;4982524;28;20034;-75
2021/04/06 08:56:51;;;;;;;3.60;1.33;;;;;;;4.96;91.73;99907.63;4987409;28;20066;-74
2021/04/06 08:59:35;;;;;;;4.60;1.30;;;;;;;4.87;92.62;99909.63;4986611;28;20510;-74
2021/04/06 09:02:06;;;;;;;4.03;1.20;;;;;;;4.65;93.44;99906.63;4987953;28;20503;-74
2021/04/06 09:04:43;;;;;;;6.35;1.23;;;;;;;4.53;95.38;99910.84;4986032;28;20076;-74
2021/04/06 09:07:44;;;;;;;4.97;1.15;;;;;;;4.65;95.03;99911.97;4989958;28;20030;-74
2021/04/06 09:10:11;;;;;;;4.33;1.80;;;;;;;4.45;96.15;99901.06;4928592;29;20072;-75
2021/04/06 09:12:40;;;;;;;6.00;1.83;;;;;;;4.43;97.66;99897.22;4962545;28;20046;-77
2021/04/06 09:15:08;;;;;;;7.32;2.20;;;;;;;4.66;96.88;99900.19;4980712;28;20041;-75
2021/04/06 09:17:35;;;;;;;4.20;2.72;;;;;;;4.66;97.32;99901.00;4977744;28;20038;-75
2021/04/06 09:20:10;;;;;;;8.60;3.58;;;;;;;4.99;98.01;99898.97;4983482;28;20061;-74
2021/04/06 09:22:36;;;;;;;13.48;4.55;;;;;;;5.53;98.83;99883.34;4988290;28;20092;-74
2021/04/06 09:25:13;;;;;;;6.85;2.70;;;;;;;6.27;98.10;99891.44;4981755;28;20045;-74
2021/04/06 09:28:07;;;;;;;4.82;2.20;;;;;;;6.87;96.55;99887.50;4982509;28;20034;-74
2021/04/06 09:30:40;;;;;;;9.85;1.67;;;;;;;7.34;92.02;99883.94;4983765;28;20117;-73
2021/04/06 09:33:10;;;;;;;10.45;1.67;;;;;;;7.75;89.51;99886.66;4987589;28;20081;-75
2021/04/06 09:35:36;;;;;;;5.10;1.33;;;;;;;7.76;85.75;99892.81;4988433;28;20034;-76
2021/04/06 09:38:03;;;;;;;4.90;1.58;;;;;;;7.32;85.31;99888.88;4994075;28;20133;-74
2021/04/06 09:40:36;;;;;;;8.70;1.65;;;;;;;7.03;86.01;99904.31;4993533;28;20041;-74
2021/04/06 09:43:03;;;;;;;6.28;1.52;;;;;;;6.74;86.29;99890.63;4988177;28;20057;-75
2021/04/06 09:45:29;;;;;;;6.00;2.10;;;;;;;6.37;87.22;99895.50;4977639;28;20113;-74
2021/04/06 09:47:56;;;;;;;7.13;1.92;;;;;;;5.97;89.16;99884.16;4989699;28;20030;-74
2021/04/06 09:50:22;;;;;;;7.20;2.22;;;;;;;5.70;91.07;99890.28;4983074;28;20368;-74
2021/04/06 09:52:48;;;;;;;5.13;1.73;;;;;;;5.59;91.26;99879.34;4990525;28;20117;-74
2021/04/06 09:55:17;;;;;;;4.40;2.30;;;;;;;5.51;92.31;99882.91;4991133;28;20041;-74
2021/04/06 09:57:48;;;;;;;6.15;2.30;;;;;;;5.49;92.99;99872.59;4992042;28;20790;-74
2021/04/06 10:00:18;;;;;;;7.18;2.03;;;;;;;5.57;93.65;99875.44;4983923;28;20034;-75
2021/04/06 10:03:05;;;;;;;3.33;2.30;;;;;;;5.49;94.15;99869.91;4989188;28;20626;-74
2021/04/06 10:05:31;;;;;;;5.07;2.13;;;;;;;5.41;95.36;99870.84;4986448;28;20513;-74
2021/04/06 10:07:56;;;;;;;8.40;2.40;;;;;;;5.94;96.00;99871.50;4968693;28;20069;-74
2021/04/06 10:10:28;;;;;;;6.75;2.60;;;;;;;6.48;94.42;99869.03;4984097;28;20031;-75
2021/04/06 10:12:55;;;;;;;7.05;3.15;;;;;;;6.60;92.35;99856.31;4984953;28;20030;-74
2021/04/06 10:15:22;;;;;;;10.70;3.05;;;;;;;6.99;92.86;99859.84;4991010;28;20088;-75
2021/04/06 10:17:49;;;;;;;6.55;3.30;;;;;;;7.49;91.85;99867.03;4992745;28;20034;-74
2021/04/06 10:20:19;;;;;;;6.63;2.53;;;;;;;7.81;90.79;99860.34;4982258;28;20121;-73
2021/04/06 10:22:57;;;;;;;4.30;2.28;;;;;;;8.09;89.13;99866.22;4981817;28;20037;-74
2021/04/06 10:25:26;;;;;;;5.32;1.88;;;;;;;8.00;86.65;99861.09;4986451;28;20057;-74
2021/04/06 10:27:55;;;;;;;5.50;2.08;;;;;;;7.68;84.97;99875.81;4988547;28;20022;-75
2021/04/06 10:30:31;;;;;;;3.75;2.20;;;;;;;7.28;85.85;99868.13;4990932;28;20061;-75
2021/04/06 10:33:08;;;;;;;5.15;1.83;;;;;;;6.87;88.16;99865.34;4988207;28;20073;-75
2021/04/06 10:35:48;;;;;;;7.18;2.00;;;;;;;6.56;89.95;99852.81;4983806;28;20411;-74
2021/04/06 10:38:29;;;;;;;5.65;2.28;;;;;;;6.63;91.20;99852.19;4988288;28;20065;-74
2021/04/06 10:41:08;;;;;;;5.72;1.85;;;;;;;6.77;91.89;99855.97;4972676;28;20431;-74
2021/04/06 10:43:35;;;;;;;4.05;1.63;;;;;;;7.35;92.04;99847.97;4990490;28;20499;-74
2021/04/06 10:46:07;;;;;;;7.60;1.70;;;;;;;8.00;89.17;99845.00;4992359;28;20038;-74
2021/04/06 10:48:36;;;;;;;6.72;1.20;;;;;;;8.25;86.50;99850.03;4992428;28;20033;-74
2021/04/06 10:51:15;;;;;;;4.97;1.67;;;;;;;8.50;85.00;99840.44;4992411;28;20053;-74
2021/04/06 10:53:46;;;;;;;7.78;1.15;;;;;;;8.73;83.72;99841.97;4996815;22;20568;-72
2021/04/06 10:56:16;;;;;;;;;;;;;;;8.86;84.02;99832.56;4978965;28;20035;-71
2021/04/06 10:58:44;;;;;;;3.05;1.10;;;;;;;9.34;79.46;99830.88;4967168;28;19924;-71
2021/04/06 11:01:12;;;;;;;7.40;1.70;;;;;;;9.65;75.92;99826.97;4972435;28;20033;-71
2021/04/06 11:03:50;;;;;;;5.15;1.67;;;;;;;9.50;76.75;99819.91;4963566;28;20407;-71
2021/04/06 11:06:36;;;;;;;7.55;1.73;;;;;;;9.76;78.47;99822.47;4952764;28;20063;-71
2021/04/06 11:09:11;;;;;;;4.80;1.60;;;;;;;10.13;78.07;99835.91;4964930;28;20054;-71
2021/04/06 11:11:36;;;;;;;5.05;1.45;;;;;;;10.31;74.65;99828.75;4962655;28;20389;-71
2021/04/06 11:14:08;;;;;;;4.90;1.40;;;;;;;10.07;74.64;99832.75;4958849;28;20033;-71
2021/04/06 11:16:36;;;;;;;5.97;1.73;;;;;;;9.88;73.33;99838.34;4960974;28;20046;-71
2021/04/06 11:19:18;;;;;;;6.40;2.17;;;;;;;9.49;74.92;99821.81;4955269;28;20039;-71
2021/04/06 11:21:52;;;;;;;4.80;2.05;;;;;;;8.72;78.39;99848.47;4959294;28;20053;-71
2021/04/06 11:24:20;;;;;;;4.88;1.65;;;;;;;8.01;80.45;99840.41;4954025;28;20083;-71
2021/04/06 11:26:47;;;;;;;4.88;1.48;;;;;;;7.49;81.98;99849.03;4956897;28;20057;-70
2021/04/06 11:29:15;;;;;;;5.05;1.23;;;;;;;7.18;84.24;99839.25;4955735;28;20039;-71
2021/04/06 11:31:43;;;;;;;4.32;1.10;;;;;;;6.83;85.15;99830.47;4955112;28;20035;-70
2021/04/06 11:34:09;;;;;;;4.95;1.20;;;;;;;6.46;86.67;99818.56;4953572;28;20439;-71
2021/04/06 11:36:35;;;;;;;5.70;0.90;;;;;;;6.22;86.85;99824.88;4955690;28;20039;-71
2021/04/06 11:39:04;;;;;;;5.15;1.20;;;;;;;6.28;87.27;99814.69;4953700;28;20085;-71
2021/04/06 11:41:30;;;;;;;4.45;1.08;;;;;;;6.28;85.79;99823.50;4950217;28;20447;-71
2021/04/06 11:43:55;;;;;;;5.00;1.08;;;;;;;6.51;86.36;99823.63;4961748;28;20122;-71
2021/04/06 11:46:21;;;;;;;3.83;1.10;;;;;;;6.91;87.50;99804.66;4950591;28;20546;-71
2021/04/06 11:48:47;;;;;;;3.60;1.23;;;;;;;7.44;89.10;99821.75;4947356;28;20039;-71
2021/04/06 11:51:14;;;;;;;3.38;0.93;;;;;;;7.94;86.97;99795.50;4949611;28;20031;-72
2021/04/06 11:53:40;;;;;;;4.45;1.48;;;;;;;8.02;83.16;99815.16;4944131;28;20035;-71